Sanford, FL

6:29 PM EDT on September 22, 2014 (GMT -0400)
Forest Cove | Change Station
CLOSE
Current Station
Personal Weather Station
Location: Sanford, FL
Elevation: 36 ft
Nearby Weather Stations

Elev 36 ft 28.83 °N, 81.34 °W | Updated 5 seconds ago

Overcast
Overcast
75.6 °F
Feels Like 74 °F
N
0.0
Wind Variable Wind from West
Gusts 0.0 mph

Today
High -- | Low -- °F
--% Chance of Precip.
Yesterday
High -- | Low -- °F
Precip. -- in
7:13 AM 7:21 PM
Waning Crescent, 2% visible
Pressure 30.00 in
Visibility 10.0 miles
Clouds Overcast 2900 ft
Heat Index 74 °F
Dew Point 74 °F
Humidity 96%
Rainfall 0.11 in
Snow Depth Not available.
UV 0 out of 12
Pollen 2.70 out of 12
Air Quality Not available.
Flu Activity Not available.
SPECI KSFB 222224Z 21005KT 10SM OVC029 24/23 A3000 RMK AO2 LTG DSNT NE T02440228

More Conditions Fewer Conditions

Pressure 30.00 in
Visibility 10.0 miles
Clouds Overcast 2900 ft
Heat Index 74 °F
Dew Point 74 °F
Humidity 96%
Rainfall 0.11 in
Snow Depth Not available.
UV 0 out of 12
Pollen 2.70 out of 12
Air Quality Not available.
Flu Activity Not available.
SPECI KSFB 222224Z 21005KT 10SM OVC029 24/23 A3000 RMK AO2 LTG DSNT NE T02440228

More Conditions Fewer Conditions

Nowcast | as of 5:37 PM EDT on September 22, 2014

Showers and scattered thunderstorms with locally heavy rain will move north and northeast across east central Florida this evening. Heavier showers and strong storms will move toward the coast and the near shore Atlantic waters into mid evening. Rainfall amounts up to around two inches will cause ponding of waters on roadways and flooding of poor drainage areas across coastal Volusia and Brevard counties. Areas of stratiform rain will continue into late evening as storms move out into the Atlantic during the late evening hours. Additional details...including graphics are available online at: http://www.Srh.NOAA.Gov/mlb/blog.Php

×

10-Day Weather Forecast

Almanac

Astronomy

Sep. 22, 2014 Rise Set
Actual Time 7:13 AM EDT 7:21 PM EDT
Civil Twilight 6:50 AM EDT 7:45 PM EDT
Nautical Twilight 6:22 AM EDT 8:12 PM EDT
Astronomical Twilight 5:54 AM EDT 8:40 PM EDT
Moon 5:46 AM EDT 6:25 PM EDT
Length of Visible Light 12h 55m
Length of Day
12h 08m
Tomorrow will be 1m 42s shorter.
Waning Crescent, 2% of the Moon is Illuminated
Today
Waning Crescent
Sep 24
New
Oct 1
First Quarter
Oct 8
Full
Oct 15
Last Quarter

Today's Extremes

State Highs State Lows

Community

WunderPhotos

Upload Photos

1,755,541 photos uploaded!

Nearby

Snow Depth

Station Depth Elevation
No new snow has been reported.

Earthquake Activity

City Distance Mag. Time & Date
No recent earthquake activity has been reported nearby.
Minimum magnitude displayed is 2.5.

Coastal Water Temperatures

Place Temperature
Trident Pier, FL 84.9 °F
Fort Myers, FL 84.0 °F
Lake Worth, FL 84.9 °F

Nearby Weather Stations